Time;durP1;ratioP1;P1;durP2;ratioP2;P2;SDS_P1;SDS_P2;PMS_P1;PMS_P2;Temp;Humidity;BMP_temperature;BMP_pressure;BME280_temperature;BME280_humidity;BME280_pressure;Samples;Min_cycle;Max_cycle;Signal;HPM_P1;HPM_P2
2023/06/30 00:02:23;;;;;;;7.50;3.75;;;;;;;13.98;78.13;96422.91;5093825;28;20494;-63
2023/06/30 00:04:49;;;;;;;3.80;3.40;;;;;;;13.90;78.51;96432.94;5093690;28;20089;-63
2023/06/30 00:07:20;;;;;;;4.97;3.40;;;;;;;13.94;78.69;96425.75;5093614;28;20439;-63
2023/06/30 00:09:50;;;;;;;;;;;;;;;13.99;78.68;96434.25;5094145;28;20083;-62
2023/06/30 00:12:17;;;;;;;3.25;2.95;;;;;;;14.00;78.35;96426.28;5092990;28;19967;-61
2023/06/30 00:14:44;;;;;;;6.82;3.38;;;;;;;14.01;78.52;96425.38;5093606;28;20083;-63
2023/06/30 00:17:11;;;;;;;4.68;3.08;;;;;;;14.00;78.13;96423.63;5093648;28;20062;-62
2023/06/30 00:19:38;;;;;;;5.22;3.28;;;;;;;14.00;77.84;96430.69;5093591;28;20075;-61
2023/06/30 00:22:07;;;;;;;9.18;3.00;;;;;;;13.92;78.02;96425.00;5093511;28;20127;-61
2023/06/30 00:24:34;;;;;;;10.20;3.60;;;;;;;13.88;77.94;96426.94;5093551;28;20481;-61
2023/06/30 00:27:03;;;;;;;6.10;3.08;;;;;;;13.87;77.86;96423.47;5093344;28;20105;-63
2023/06/30 00:29:30;;;;;;;4.32;3.17;;;;;;;13.85;77.55;96427.94;5093378;28;20055;-62
2023/06/30 00:31:57;;;;;;;3.95;3.22;;;;;;;13.79;77.98;96422.16;5093370;28;20047;-62
2023/06/30 00:34:24;;;;;;;8.77;3.13;;;;;;;13.76;77.82;96420.56;5093348;28;20052;-61
2023/06/30 00:36:52;;;;;;;6.72;2.97;;;;;;;13.81;77.96;96428.22;5093313;28;20054;-62
2023/06/30 00:39:18;;;;;;;13.45;3.25;;;;;;;13.76;77.66;96423.19;5093201;28;20051;-61
2023/06/30 00:41:46;;;;;;;7.05;3.25;;;;;;;13.70;77.65;96424.34;5093261;28;20044;-62
2023/06/30 00:44:14;;;;;;;3.88;3.10;;;;;;;13.69;77.76;96427.06;5093032;28;20497;-62
2023/06/30 00:46:42;;;;;;;6.50;3.20;;;;;;;13.69;77.76;96427.06;5093073;28;20058;-62
2023/06/30 00:49:09;;;;;;;3.13;2.65;;;;;;;13.66;77.63;96428.06;5093135;28;20063;-61
2023/06/30 00:51:36;;;;;;;4.63;3.15;;;;;;;13.58;77.74;96425.00;5093156;28;20075;-62
2023/06/30 00:54:03;;;;;;;15.30;3.58;;;;;;;13.53;77.86;96417.34;5093171;28;20119;-63
2023/06/30 00:56:30;;;;;;;4.45;3.22;;;;;;;13.44;77.97;96423.03;5093068;28;20048;-63
2023/06/30 00:58:58;;;;;;;5.53;3.17;;;;;;;13.45;78.63;96420.34;5093227;28;20068;-62
2023/06/30 01:01:32;;;;;;;5.22;2.90;;;;;;;13.47;78.45;96415.88;5093002;28;20051;-61
2023/06/30 01:04:07;;;;;;;3.20;2.90;;;;;;;13.47;77.81;96421.13;5093103;28;20124;-62
2023/06/30 01:06:41;;;;;;;5.93;3.30;;;;;;;13.45;78.00;96411.63;5092857;28;20040;-63
2023/06/30 01:09:12;;;;;;;6.07;3.78;;;;;;;13.40;78.21;96419.75;5092979;28;20059;-62
2023/06/30 01:11:40;;;;;;;7.93;3.20;;;;;;;13.34;78.20;96418.25;5092987;28;20048;-63
2023/06/30 01:14:09;;;;;;;5.63;2.83;;;;;;;13.36;78.15;96419.03;5092891;28;20079;-62
2023/06/30 01:16:39;;;;;;;6.32;3.60;;;;;;;13.36;77.75;96420.81;5092914;28;20138;-62
2023/06/30 01:19:19;;;;;;;4.88;3.75;;;;;;;13.36;78.03;96423.44;5092886;28;20555;-62
2023/06/30 01:21:47;;;;;;;4.50;3.43;;;;;;;13.30;77.75;96427.22;5092989;28;20044;-62
2023/06/30 01:24:21;;;;;;;10.68;3.47;;;;;;;13.30;77.77;96423.75;5093020;28;20055;-63
2023/06/30 01:26:49;;;;;;;10.15;3.60;;;;;;;13.30;77.88;96423.75;5096740;28;20048;-62
2023/06/30 01:29:17;;;;;;;8.18;3.22;;;;;;;13.26;77.79;96415.19;5096838;28;20048;-62
2023/06/30 01:31:46;;;;;;;5.68;3.95;;;;;;;13.21;77.75;96417.19;5096755;28;20048;-63
2023/06/30 01:34:13;;;;;;;6.45;3.50;;;;;;;13.16;77.99;96420.06;5096837;28;20584;-63
2023/06/30 01:36:40;;;;;;;10.75;3.53;;;;;;;13.14;77.63;96416.66;5096555;28;20123;-63
2023/06/30 01:39:07;;;;;;;5.30;3.33;;;;;;;13.11;78.15;96422.06;5096617;28;20044;-62
2023/06/30 01:41:34;;;;;;;5.63;3.45;;;;;;;13.07;78.34;96416.13;5096522;28;20050;-63
2023/06/30 01:44:02;;;;;;;7.75;3.00;;;;;;;13.06;78.15;96417.03;5096217;28;20044;-62
2023/06/30 01:46:30;;;;;;;5.95;3.55;;;;;;;13.04;78.21;96411.03;5096329;28;20130;-63
2023/06/30 01:48:59;;;;;;;3.80;3.40;;;;;;;13.04;78.24;96413.66;5096524;28;20044;-62
2023/06/30 01:51:26;;;;;;;6.63;3.30;;;;;;;13.03;78.45;96411.94;5096316;28;20048;-63
2023/06/30 01:53:53;;;;;;;4.60;3.47;;;;;;;13.00;78.65;96409.44;5096232;28;20139;-62
2023/06/30 01:56:20;;;;;;;6.15;3.78;;;;;;;12.96;78.91;96403.53;5096216;28;20052;-62
2023/06/30 01:58:47;;;;;;;5.20;3.10;;;;;;;12.91;79.33;96405.50;5096139;28;20048;-63
2023/06/30 02:01:14;;;;;;;8.60;3.83;;;;;;;12.83;79.21;96403.28;5096123;28;20044;-63
2023/06/30 02:03:41;;;;;;;6.03;3.63;;;;;;;12.81;79.26;96406.91;5096009;28;20044;-63
2023/06/30 02:06:10;;;;;;;4.40;3.67;;;;;;;12.79;79.84;96398.25;5096038;28;20044;-62
2023/06/30 02:08:37;;;;;;;5.88;4.32;;;;;;;12.79;80.41;96406.13;5096217;28;20044;-63
2023/06/30 02:11:04;;;;;;;4.60;3.60;;;;;;;12.77;80.32;96398.34;5096070;28;20494;-62
2023/06/30 02:13:31;;;;;;;4.70;3.72;;;;;;;12.74;80.00;96404.56;5095886;28;20440;-62
2023/06/30 02:15:58;;;;;;;3.58;3.28;;;;;;;12.75;80.32;96403.66;5095862;28;20551;-62
2023/06/30 02:18:25;;;;;;;4.85;3.63;;;;;;;12.77;80.23;96400.97;5095826;28;20059;-63
2023/06/30 02:20:52;;;;;;;11.27;3.58;;;;;;;12.79;79.88;96400.88;5095747;28;20486;-63
2023/06/30 02:23:20;;;;;;;7.07;3.92;;;;;;;12.80;80.00;96402.59;5095804;28;20105;-62
2023/06/30 02:25:47;;;;;;;8.95;3.80;;;;;;;12.82;79.72;96403.38;5095674;28;20044;-62
2023/06/30 02:28:14;;;;;;;12.10;4.22;;;;;;;12.83;79.22;96397.19;5095605;28;20090;-63
2023/06/30 02:30:41;;;;;;;3.90;3.55;;;;;;;12.80;79.10;96400.81;5095589;28;20486;-62
2023/06/30 02:33:08;;;;;;;4.72;3.95;;;;;;;12.76;79.07;96400.09;5095534;28;20046;-62
2023/06/30 02:35:35;;;;;;;6.85;3.67;;;;;;;12.71;79.12;96407.38;5095006;28;20075;-62
2023/06/30 02:38:03;;;;;;;4.05;3.58;;;;;;;12.66;79.63;96401.47;5095375;28;20101;-63
2023/06/30 02:40:32;;;;;;;4.38;3.97;;;;;;;12.66;79.77;96406.72;5095363;28;20560;-63
2023/06/30 02:42:59;;;;;;;8.05;3.95;;;;;;;12.64;80.01;96398.94;5095541;28;20398;-61
2023/06/30 02:45:26;;;;;;;7.90;3.80;;;;;;;12.65;79.79;96399.78;5095247;28;20081;-62
2023/06/30 02:47:53;;;;;;;4.95;4.03;;;;;;;12.62;80.00;96403.38;5095081;28;20168;-62
2023/06/30 02:50:28;;;;;;;8.88;4.05;;;;;;;12.57;80.58;96400.16;5095237;28;20048;-61
2023/06/30 02:52:55;;;;;;;7.32;3.58;;;;;;;12.56;80.30;96398.47;5095086;28;20482;-62
2023/06/30 02:55:23;;;;;;;5.53;3.70;;;;;;;12.58;80.43;96407.09;5095141;28;20044;-62
2023/06/30 02:57:51;;;;;;;5.40;4.20;;;;;;;12.57;80.27;96408.03;5095049;28;20059;-61
2023/06/30 03:00:19;;;;;;;6.80;4.53;;;;;;;12.53;80.38;96397.75;5095041;28;20079;-62
2023/06/30 03:02:47;;;;;;;9.70;4.05;;;;;;;12.63;80.61;96399.88;5095017;28;20048;-62
2023/06/30 03:05:14;;;;;;;5.15;4.15;;;;;;;12.68;80.68;96404.03;5094841;28;20051;-62
2023/06/30 03:07:41;;;;;;;4.43;4.03;;;;;;;12.70;79.84;96405.66;5094732;28;20052;-61
2023/06/30 03:10:09;;;;;;;4.38;3.72;;;;;;;12.72;79.98;96403.81;5094829;28;20121;-62
2023/06/30 03:12:37;;;;;;;6.47;4.35;;;;;;;12.74;79.77;96406.38;5094725;28;20048;-62
2023/06/30 03:15:07;;;;;;;6.78;4.40;;;;;;;12.74;79.74;96407.19;5094753;28;20143;-62
2023/06/30 03:17:34;;;;;;;3.47;3.17;;;;;;;12.71;79.72;96402.13;5094656;28;20045;-62
2023/06/30 03:20:01;;;;;;;7.43;4.25;;;;;;;12.72;80.02;96408.19;5094550;28;20146;-61
2023/06/30 03:22:28;;;;;;;6.22;4.13;;;;;;;12.70;80.38;96402.19;5094641;28;20055;-62
2023/06/30 03:24:57;;;;;;;13.15;5.00;;;;;;;12.72;80.90;96406.44;5094574;28;20107;-62
2023/06/30 03:27:24;;;;;;;4.70;4.30;;;;;;;12.76;81.04;96407.97;5094389;28;20123;-62
2023/06/30 03:29:51;;;;;;;5.63;4.22;;;;;;;12.82;81.08;96403.38;5094407;28;20051;-61
2023/06/30 03:32:19;;;;;;;5.55;4.43;;;;;;;12.98;81.80;96406.06;5094371;28;20424;-61
2023/06/30 03:34:46;;;;;;;4.75;3.78;;;;;;;13.29;81.32;96412.41;5094366;28;20127;-62
2023/06/30 03:37:13;;;;;;;10.52;4.05;;;;;;;13.62;80.17;96405.50;5094302;28;20127;-62
2023/06/30 03:39:41;;;;;;;4.90;3.20;;;;;;;13.96;78.73;96408.09;5094185;28;20084;-61
2023/06/30 03:42:08;;;;;;;3.20;2.90;;;;;;;14.32;77.14;96408.81;5094261;28;20047;-62
2023/06/30 03:44:35;;;;;;;6.32;3.30;;;;;;;14.73;75.46;96408.28;5093917;28;20484;-62
2023/06/30 03:47:02;;;;;;;4.00;3.38;;;;;;;15.14;73.34;96408.66;5093236;28;20047;-63
2023/06/30 03:49:31;;;;;;;6.30;3.30;;;;;;;15.56;72.10;96403.53;5093941;28;20134;-62
2023/06/30 03:51:58;;;;;;;10.88;2.80;;;;;;;16.02;70.54;96404.34;5094121;28;20130;-61
2023/06/30 03:54:25;;;;;;;4.13;3.20;;;;;;;16.46;68.93;96406.91;5093933;28;20116;-63
2023/06/30 03:56:53;;;;;;;8.30;3.25;;;;;;;16.89;67.62;96408.53;5093927;28;20490;-63
2023/06/30 03:59:20;;;;;;;6.85;2.75;;;;;;;17.37;65.31;96401.91;5093862;28;20047;-63
2023/06/30 04:01:47;;;;;;;3.53;2.72;;;;;;;17.81;64.67;96405.94;5093850;28;20048;-63
2023/06/30 04:04:15;;;;;;;3.47;2.80;;;;;;;18.21;63.22;96401.44;5093724;28;20052;-62
2023/06/30 04:06:44;;;;;;;4.38;2.65;;;;;;;18.61;62.24;96403.03;5093767;28;20080;-63
2023/06/30 04:09:12;;;;;;;6.68;2.63;;;;;;;19.00;60.53;96408.16;5093578;28;20135;-62
2023/06/30 04:11:39;;;;;;;3.85;2.47;;;;;;;19.39;58.54;96407.94;5093585;28;20084;-64
2023/06/30 04:14:07;;;;;;;4.60;2.50;;;;;;;19.70;57.91;96408.25;5093817;28;20063;-64
2023/06/30 04:16:34;;;;;;;3.88;2.03;;;;;;;20.01;57.51;96405.03;5093692;28;20452;-64
2023/06/30 04:19:01;;;;;;;4.43;2.72;;;;;;;20.33;56.77;96406.94;5093618;28;20055;-63
2023/06/30 04:21:28;;;;;;;4.10;2.38;;;;;;;20.65;56.31;96415.09;5093653;28;20047;-63
2023/06/30 04:23:57;;;;;;;3.03;2.72;;;;;;;21.01;55.98;96412.25;5093512;28;20089;-63
2023/06/30 04:26:24;;;;;;;2.30;2.10;;;;;;;21.26;54.99;96416.34;5093388;28;20113;-62
2023/06/30 04:28:51;;;;;;;4.47;2.33;;;;;;;21.51;53.49;96408.09;5093310;28;20077;-65
2023/06/30 04:31:19;;;;;;;6.68;2.30;;;;;;;21.65;53.56;96422.91;5093308;28;20405;-64
2023/06/30 04:33:46;;;;;;;4.25;2.42;;;;;;;21.84;52.98;96420.38;5093380;28;20075;-65
2023/06/30 04:36:14;;;;;;;4.35;2.28;;;;;;;22.10;53.20;96421.78;5093343;28;20047;-64
2023/06/30 04:38:42;;;;;;;5.65;2.30;;;;;;;22.38;51.62;96419.34;5093398;28;20489;-65
2023/06/30 04:41:10;;;;;;;3.45;2.50;;;;;;;22.68;51.60;96425.63;5093317;28;20139;-62
2023/06/30 04:43:38;;;;;;;6.10;2.55;;;;;;;22.82;50.65;96415.53;5093393;28;20046;-64
2023/06/30 04:46:06;;;;;;;3.53;2.25;;;;;;;23.09;51.17;96420.19;5093059;28;20052;-62
2023/06/30 04:48:35;;;;;;;3.20;2.10;;;;;;;23.36;50.72;96428.47;5093134;28;20055;-62
2023/06/30 04:51:03;;;;;;;3.65;2.15;;;;;;;23.44;49.69;96425.97;5093122;28;20051;-63
2023/06/30 04:53:31;;;;;;;2.55;2.20;;;;;;;23.50;50.93;96432.53;5093157;28;20048;-65
2023/06/30 04:55:59;;;;;;;2.03;1.70;;;;;;;23.73;50.11;96426.91;5093153;28;20496;-62
2023/06/30 04:58:27;;;;;;;5.20;2.40;;;;;;;24.02;50.59;96438.47;5093563;28;20048;-63
2023/06/30 05:00:56;;;;;;;4.43;2.40;;;;;;;24.39;49.38;96426.97;5097324;28;20536;-63
2023/06/30 05:03:23;;;;;;;2.58;1.90;;;;;;;24.69;50.47;96437.50;5097156;28;20565;-64
2023/06/30 05:05:51;;;;;;;3.97;2.40;;;;;;;25.07;49.19;96432.06;5097151;28;20048;-63
2023/06/30 05:08:18;;;;;;;6.90;2.20;;;;;;;25.40;49.58;96429.66;5097117;28;20109;-63
2023/06/30 05:10:46;;;;;;;3.08;2.15;;;;;;;25.68;48.60;96426.06;5097011;28;20067;-62
2023/06/30 05:13:14;;;;;;;5.45;2.03;;;;;;;25.88;46.01;96432.06;5097116;28;20051;-64
2023/06/30 05:15:43;;;;;;;2.47;2.13;;;;;;;26.18;45.11;96432.56;5097075;28;20075;-65
2023/06/30 05:18:10;;;;;;;2.78;2.58;;;;;;;26.51;45.04;96433.75;5096926;28;20052;-63
2023/06/30 05:20:39;;;;;;;2.83;2.22;;;;;;;26.78;44.39;96431.81;5096907;28;20080;-64
2023/06/30 05:23:06;;;;;;;5.40;2.88;;;;;;;26.95;43.29;96428.16;5096888;28;20079;-64
2023/06/30 05:25:33;;;;;;;3.50;2.47;;;;;;;27.12;44.17;96434.41;5096826;28;20048;-64
2023/06/30 05:28:00;;;;;;;3.03;2.30;;;;;;;27.24;44.09;96429.56;5096648;28;20558;-65
2023/06/30 05:30:28;;;;;;;5.65;2.58;;;;;;;27.44;41.25;96439.97;5096693;28;20052;-65
2023/06/30 05:32:56;;;;;;;5.05;2.03;;;;;;;27.53;39.69;96437.28;5096662;28;20071;-63
2023/06/30 05:35:23;;;;;;;4.28;2.10;;;;;;;27.65;41.87;96435.97;5096710;28;20044;-64
2023/06/30 05:37:51;;;;;;;4.25;2.35;;;;;;;27.82;41.37;96444.88;5096640;28;20054;-63
2023/06/30 05:40:19;;;;;;;8.43;2.25;;;;;;;28.04;41.59;96441.63;5096614;28;20052;-64
2023/06/30 05:42:46;;;;;;;3.97;2.17;;;;;;;28.24;41.71;96436.69;5096493;28;20048;-65
2023/06/30 05:45:13;;;;;;;3.13;2.33;;;;;;;28.45;40.69;96443.38;5096232;28;20055;-64
2023/06/30 05:47:40;;;;;;;4.72;2.28;;;;;;;28.60;40.71;96444.31;5096440;28;20048;-64
2023/06/30 05:50:10;;;;;;;5.60;2.30;;;;;;;28.81;39.58;96448.25;5096500;28;20123;-64
2023/06/30 05:52:37;;;;;;;3.28;2.05;;;;;;;28.93;39.38;96447.84;5096281;28;20055;-65
2023/06/30 05:55:05;;;;;;;4.20;2.33;;;;;;;29.01;39.42;96447.81;5096257;28;20478;-64
2023/06/30 05:57:33;;;;;;;4.53;2.03;;;;;;;29.19;38.41;96450.22;5096208;28;20079;-64
2023/06/30 06:00:00;;;;;;;5.85;2.35;;;;;;;29.38;36.63;96457.00;5096179;28;20086;-64
2023/06/30 06:02:27;;;;;;;5.00;2.00;;;;;;;29.51;37.47;96442.94;5096193;28;20401;-65
2023/06/30 06:04:55;;;;;;;2.05;1.75;;;;;;;29.71;36.90;96447.81;5096060;28;20055;-64
2023/06/30 06:07:23;;;;;;;2.72;2.10;;;;;;;29.89;36.62;96446.69;5096025;28;20044;-64
2023/06/30 06:09:50;;;;;;;3.13;1.92;;;;;;;29.97;37.52;96443.03;5095530;28;20134;-64
2023/06/30 06:12:18;;;;;;;2.85;1.70;;;;;;;29.91;37.00;96449.19;5095508;28;20055;-63
2023/06/30 06:14:45;;;;;;;5.88;1.92;;;;;;;29.90;36.17;96442.94;5095943;28;20044;-66
2023/06/30 06:17:12;;;;;;;4.07;1.90;;;;;;;30.06;35.81;96439.25;5095778;28;20078;-63
2023/06/30 06:19:39;;;;;;;3.75;2.20;;;;;;;30.27;34.68;96448.47;5095843;28;20122;-65
2023/06/30 06:22:07;;;;;;;5.53;2.35;;;;;;;30.41;34.96;96444.13;5095822;28;20059;-65
2023/06/30 06:24:36;;;;;;;4.97;1.88;;;;;;;30.45;34.98;96441.88;5095664;28;20044;-65
2023/06/30 06:27:03;;;;;;;4.53;1.95;;;;;;;30.50;35.12;96442.16;5095727;28;20075;-66
2023/06/30 06:29:30;;;;;;;4.70;1.98;;;;;;;30.60;35.56;96448.09;5095527;28;20490;-65
2023/06/30 06:31:58;;;;;;;2.35;2.08;;;;;;;30.81;34.78;96446.50;5095539;28;20083;-64
2023/06/30 06:34:25;;;;;;;4.25;1.80;;;;;;;30.98;35.00;96444.44;5095439;28;20040;-63
2023/06/30 06:36:52;;;;;;;3.38;1.92;;;;;;;30.83;34.81;96440.91;5095572;28;20470;-66
2023/06/30 06:39:20;;;;;;;2.55;1.85;;;;;;;30.98;34.40;96444.44;5095449;28;20405;-64
2023/06/30 06:41:49;;;;;;;2.20;1.98;;;;;;;31.18;34.22;96451.88;5095368;28;20047;-64
2023/06/30 06:44:17;;;;;;;1.63;1.48;;;;;;;31.28;32.57;96448.88;5095098;28;20052;-64
2023/06/30 06:46:44;;;;;;;3.10;1.75;;;;;;;31.41;31.62;96445.50;5095197;28;20055;-65
2023/06/30 06:49:11;;;;;;;1.80;1.70;;;;;;;31.61;31.31;96439.44;5095237;28;20143;-65
2023/06/30 06:51:39;;;;;;;4.72;1.80;;;;;;;31.73;30.93;96442.44;5095149;28;20048;-64
2023/06/30 06:54:06;;;;;;;2.70;1.98;;;;;;;31.94;31.13;96438.06;5095099;28;20098;-65
2023/06/30 06:56:34;;;;;;;3.70;1.55;;;;;;;31.98;32.12;96447.44;5094977;28;20052;-66
2023/06/30 06:59:03;;;;;;;2.67;1.63;;;;;;;32.06;31.09;96444.59;5095079;28;20131;-65
2023/06/30 07:01:31;;;;;;;6.75;2.17;;;;;;;32.07;31.56;96448.97;5094989;28;20056;-65
2023/06/30 07:03:58;;;;;;;2.28;1.85;;;;;;;31.92;30.96;96451.75;5094871;28;20054;-64
2023/06/30 07:06:26;;;;;;;2.95;2.10;;;;;;;31.96;31.89;96446.81;5094896;28;20123;-64
2023/06/30 07:08:53;;;;;;;3.63;1.88;;;;;;;32.10;31.82;96447.72;5094935;28;20573;-65
2023/06/30 07:11:20;;;;;;;2.00;1.80;;;;;;;32.17;31.33;96455.88;5094911;28;20062;-66
2023/06/30 07:13:47;;;;;;;2.42;2.20;;;;;;;32.06;30.92;96443.75;5094759;28;20482;-64
2023/06/30 07:16:17;;;;;;;3.97;2.63;;;;;;;32.10;30.34;96445.84;5094756;28;20044;-65
2023/06/30 07:18:45;;;;;;;2.15;1.90;;;;;;;32.26;30.62;96441.16;5094762;28;20413;-65
2023/06/30 07:21:12;;;;;;;4.10;2.05;;;;;;;32.33;31.65;96442.06;5094518;28;20101;-66
2023/06/30 07:23:39;;;;;;;2.97;2.22;;;;;;;32.52;31.47;96442.38;5094612;28;20044;-63
2023/06/30 07:26:07;;;;;;;4.22;1.98;;;;;;;32.73;32.06;96443.28;5094515;28;20162;-64
2023/06/30 07:28:35;;;;;;;3.08;2.15;;;;;;;32.39;28.80;96446.63;5094423;28;20135;-65
2023/06/30 07:31:03;;;;;;;4.25;2.20;;;;;;;32.00;31.96;96448.09;5094311;28;20044;-65
2023/06/30 07:33:32;;;;;;;5.38;2.63;;;;;;;32.03;31.51;96445.81;5094302;28;20060;-64
2023/06/30 07:36:00;;;;;;;3.38;2.10;;;;;;;32.11;32.61;96439.41;5094386;28;20044;-64
2023/06/30 07:38:28;;;;;;;2.95;1.80;;;;;;;32.25;30.81;96447.59;5094337;28;20482;-65
2023/06/30 07:40:56;;;;;;;3.55;2.10;;;;;;;32.20;30.81;96440.09;5094227;28;20040;-64
2023/06/30 07:43:24;;;;;;;4.15;2.05;;;;;;;32.26;31.80;96444.69;5094185;28;20071;-64
2023/06/30 07:45:52;;;;;;;1.73;1.63;;;;;;;32.50;29.66;96447.13;5094005;28;20067;-64
2023/06/30 07:48:20;;;;;;;3.13;1.77;;;;;;;32.57;27.75;96441.78;5093942;28;20048;-65
2023/06/30 07:50:49;;;;;;;5.63;1.90;;;;;;;32.54;28.62;96437.59;5093982;28;20126;-65
2023/06/30 07:53:16;;;;;;;2.70;2.05;;;;;;;32.44;29.11;96435.22;5094128;28;20126;-64
2023/06/30 07:55:43;;;;;;;3.08;2.55;;;;;;;32.53;30.04;96430.50;5093927;28;20072;-64
2023/06/30 07:58:11;;;;;;;4.30;2.00;;;;;;;32.53;28.72;96441.31;5093898;28;20063;-64
2023/06/30 08:00:39;;;;;;;3.42;1.88;;;;;;;32.42;30.92;96439.16;5093878;28;20044;-64
2023/06/30 08:03:06;;;;;;;3.38;1.85;;;;;;;32.38;30.44;96442.28;5093802;28;20044;-64
2023/06/30 08:05:34;;;;;;;2.63;1.70;;;;;;;32.05;29.26;96440.19;5093801;28;20044;-64
2023/06/30 08:08:02;;;;;;;1.80;1.63;;;;;;;32.07;28.97;96446.25;5093734;28;20048;-65
2023/06/30 08:10:29;;;;;;;4.60;2.17;;;;;;;31.89;29.07;96444.84;5093718;28;20082;-64
2023/06/30 08:12:57;;;;;;;3.47;1.90;;;;;;;31.96;29.02;96439.53;5093720;28;20497;-64
2023/06/30 08:15:24;;;;;;;5.10;2.00;;;;;;;31.84;29.13;96441.91;5093604;28;20081;-64
2023/06/30 08:17:51;;;;;;;3.58;2.13;;;;;;;31.84;29.40;96446.50;5093704;28;20506;-64
2023/06/30 08:20:18;;;;;;;2.65;2.15;;;;;;;31.69;31.31;96441.97;5093652;28;20105;-64
2023/06/30 08:22:45;;;;;;;2.60;1.67;;;;;;;31.82;31.38;96440.44;5093498;28;20048;-64
2023/06/30 08:25:14;;;;;;;3.92;2.00;;;;;;;31.74;31.01;96434.13;5093612;28;20075;-64
2023/06/30 08:27:41;;;;;;;2.30;1.92;;;;;;;31.48;30.76;96430.19;5093418;28;20048;-64
2023/06/30 08:30:09;;;;;;;2.70;1.70;;;;;;;31.18;31.17;96432.16;5093338;28;20087;-64
2023/06/30 08:32:36;;;;;;;4.50;1.90;;;;;;;30.95;29.16;96431.31;5093575;28;20044;-64
2023/06/30 08:35:03;;;;;;;4.15;2.25;;;;;;;30.61;30.33;96416.56;5093056;28;20043;-65
2023/06/30 08:37:30;;;;;;;3.75;1.73;;;;;;;30.07;30.54;96419.34;5093361;28;20056;-64
2023/06/30 08:39:57;;;;;;;4.00;2.10;;;;;;;29.78;32.40;96421.00;5093283;28;20044;-64
2023/06/30 08:42:31;;;;;;;3.20;1.92;;;;;;;29.63;32.18;96413.75;5093260;28;20052;-63
2023/06/30 08:44:59;;;;;;;3.67;1.90;;;;;;;29.49;32.16;96409.09;5093000;28;20070;-64
2023/06/30 08:47:28;;;;;;;2.58;2.08;;;;;;;29.55;34.17;96410.25;5093209;28;20055;-63
2023/06/30 08:49:55;;;;;;;2.05;1.70;;;;;;;29.59;32.98;96408.91;5093145;28;20099;-63
2023/06/30 08:52:23;;;;;;;2.53;1.73;;;;;;;29.81;34.09;96403.63;5093100;28;20048;-64
2023/06/30 08:54:50;;;;;;;2.40;2.05;;;;;;;30.18;31.46;96403.75;5093172;28;20047;-64
2023/06/30 08:57:18;;;;;;;1.63;1.52;;;;;;;30.51;31.37;96404.19;5093127;28;20044;-64
2023/06/30 08:59:46;;;;;;;2.60;1.83;;;;;;;30.50;30.54;96413.34;5093033;28;20418;-64
2023/06/30 09:02:13;;;;;;;4.05;2.08;;;;;;;30.12;29.40;96392.69;5093136;28;20044;-65
2023/06/30 09:04:41;;;;;;;1.40;1.30;;;;;;;29.96;32.94;96395.56;5093159;28;20070;-64
2023/06/30 09:07:09;;;;;;;3.25;1.60;;;;;;;29.84;33.26;96400.56;5093231;28;20048;-64
2023/06/30 09:09:42;;;;;;;4.35;1.60;;;;;;;29.78;31.44;96402.13;5093000;28;20139;-64
2023/06/30 09:12:11;;;;;;;2.40;1.58;;;;;;;29.17;32.08;96403.81;5093082;28;20121;-63
2023/06/30 09:14:39;;;;;;;2.92;1.90;;;;;;;28.50;32.81;96412.25;5093146;28;20074;-63
2023/06/30 09:17:09;;;;;;;1.67;1.58;;;;;;;28.11;33.14;96405.81;5093056;28;20062;-64
2023/06/30 09:19:36;;;;;;;2.45;1.52;;;;;;;27.94;35.77;96396.97;5092888;28;20048;-64
2023/06/30 09:22:04;;;;;;;1.80;1.50;;;;;;;27.71;36.56;96394.16;5092994;28;20048;-63
2023/06/30 09:24:31;;;;;;;3.10;1.70;;;;;;;27.46;35.30;96400.38;5092861;28;20052;-63
2023/06/30 09:26:58;;;;;;;1.80;1.40;;;;;;;27.48;39.56;96397.53;5092859;28;20047;-64
2023/06/30 09:29:25;;;;;;;5.00;1.73;;;;;;;27.56;38.23;96394.81;5092853;28;20052;-63
2023/06/30 09:31:53;;;;;;;2.45;1.90;;;;;;;27.72;39.27;96393.19;5092854;28;20579;-63
2023/06/30 09:34:21;;;;;;;1.90;1.70;;;;;;;27.90;34.16;96394.81;5092815;28;20138;-64
2023/06/30 09:36:49;;;;;;;1.90;1.50;;;;;;;28.24;38.86;96389.13;5092811;28;20093;-64
2023/06/30 09:39:17;;;;;;;2.45;1.52;;;;;;;28.42;36.20;96385.41;5092838;28;20148;-64
2023/06/30 09:41:45;;;;;;;3.17;1.70;;;;;;;28.83;37.11;96383.50;5092734;28;20496;-63
2023/06/30 09:44:13;;;;;;;1.95;1.50;;;;;;;29.21;34.63;96372.81;5092566;28;20044;-63
2023/06/30 09:46:47;;;;;;;6.60;1.70;;;;;;;29.45;35.39;96373.63;5095241;28;20071;-63
2023/06/30 09:49:25;;;;;;;3.70;1.67;;;;;;;29.60;34.23;96371.00;5096496;28;20507;-64
2023/06/30 09:51:53;;;;;;;2.85;1.60;;;;;;;29.69;34.33;96379.00;5096292;28;20052;-64
2023/06/30 09:54:21;;;;;;;1.70;1.45;;;;;;;29.57;35.05;96384.00;5096312;28;20477;-64
2023/06/30 09:56:48;;;;;;;1.63;1.45;;;;;;;29.45;33.55;96373.63;5096259;28;20093;-64
2023/06/30 09:59:15;;;;;;;4.00;1.70;;;;;;;29.29;34.04;96373.78;5096314;28;20051;-64
2023/06/30 10:01:42;;;;;;;4.60;1.40;;;;;;;29.11;34.58;96367.66;5096288;28;20055;-63
2023/06/30 10:04:09;;;;;;;1.65;1.50;;;;;;;28.99;35.65;96369.13;5096167;28;20052;-63
2023/06/30 10:06:39;;;;;;;1.88;1.40;;;;;;;28.94;35.75;96368.81;5096036;28;20056;-65
2023/06/30 10:09:07;;;;;;;2.00;1.40;;;;;;;29.00;36.97;96371.66;5096043;28;20044;-63
2023/06/30 10:11:38;;;;;;;2.78;1.42;;;;;;;29.08;35.60;96361.81;5095994;28;20509;-63
2023/06/30 10:14:06;;;;;;;1.83;1.50;;;;;;;29.09;36.35;96360.81;5095963;28;20052;-63
2023/06/30 10:16:34;;;;;;;1.95;1.52;;;;;;;29.42;35.33;96363.22;5095841;28;20052;-63
2023/06/30 10:19:03;;;;;;;2.60;1.73;;;;;;;29.60;35.49;96362.91;5095864;28;20044;-63
2023/06/30 10:21:30;;;;;;;2.75;1.52;;;;;;;29.75;35.93;96354.84;5095911;28;20491;-64
2023/06/30 10:24:01;;;;;;;2.20;1.55;;;;;;;30.04;35.00;96352.34;5095880;28;20118;-63
2023/06/30 10:26:28;;;;;;;2.17;1.35;;;;;;;30.09;35.86;96349.91;5095689;28;20137;-64
2023/06/30 10:28:56;;;;;;;2.97;1.80;;;;;;;30.08;35.56;96353.63;5095493;28;20055;-63
2023/06/30 10:31:24;;;;;;;1.92;1.50;;;;;;;30.01;32.21;96355.41;5095588;28;20082;-64
2023/06/30 10:33:51;;;;;;;2.67;1.70;;;;;;;29.87;32.45;96346.28;5095597;28;20048;-64
2023/06/30 10:36:19;;;;;;;2.72;1.73;;;;;;;29.91;33.97;96349.47;5095585;28;20044;-63
2023/06/30 10:38:47;;;;;;;3.08;1.60;;;;;;;29.84;32.82;96352.91;5095477;28;20043;-63
2023/06/30 10:41:19;;;;;;;1.80;1.70;;;;;;;29.47;35.80;96343.81;5095426;28;20455;-63
2023/06/30 10:44:09;;;;;;;3.88;1.55;;;;;;;29.42;32.72;96347.06;5095390;28;20083;-63
2023/06/30 10:46:51;;;;;;;2.03;1.67;;;;;;;29.63;36.29;96341.00;5095272;28;20430;-63
2023/06/30 10:49:24;;;;;;;3.45;1.60;;;;;;;29.70;30.04;96341.09;5095356;28;20048;-64
2023/06/30 10:51:52;;;;;;;2.80;1.83;;;;;;;29.37;31.83;96336.84;5095282;28;20054;-64
2023/06/30 10:54:23;;;;;;;1.65;1.55;;;;;;;29.35;35.50;96327.28;5095281;28;20127;-63
2023/06/30 10:56:53;;;;;;;1.80;1.23;;;;;;;29.40;35.09;96330.25;5094931;28;20101;-63
2023/06/30 10:59:24;;;;;;;;;;;;;;;29.35;34.87;96332.66;5095719;28;20052;-63
2023/06/30 11:02:09;;;;;;;;;;;;;;;29.19;33.42;96333.66;5095698;28;19974;-63
2023/06/30 11:04:37;;;;;;;4.15;1.83;;;;;;;29.05;37.81;96324.50;5095046;28;19920;-63
2023/06/30 11:07:06;;;;;;;1.60;1.50;;;;;;;29.17;35.93;96328.44;5094882;28;20494;-64
2023/06/30 11:10:07;;;;;;;1.40;1.30;;;;;;;29.34;34.71;96312.13;5094882;28;20101;-64
2023/06/30 11:12:55;;;;;;;1.92;1.70;;;;;;;29.64;35.25;96313.03;5032712;28;20136;-63
2023/06/30 11:15:30;;;;;;;1.60;1.50;;;;;;;29.76;33.97;96309.88;5032539;28;20092;-64
2023/06/30 11:18:05;;;;;;;1.80;1.70;;;;;;;29.85;36.42;96307.91;5072393;28;20047;-64
2023/06/30 11:20:33;;;;;;;3.70;1.40;;;;;;;29.46;34.84;96309.81;5094595;28;20503;-62
2023/06/30 11:23:02;;;;;;;1.90;1.80;;;;;;;29.11;35.97;96297.69;5094580;28;20052;-64
2023/06/30 11:25:29;;;;;;;3.17;1.55;;;;;;;29.25;33.78;96303.28;5094584;28;20048;-63
2023/06/30 11:28:00;;;;;;;1.83;1.65;;;;;;;29.29;35.63;96296.53;5094506;28;20105;-64
2023/06/30 11:30:27;;;;;;;1.83;1.70;;;;;;;29.32;34.68;96296.16;5094323;28;20055;-64
2023/06/30 11:32:57;;;;;;;5.75;1.75;;;;;;;29.51;34.10;96285.88;5094453;28;20054;-64
2023/06/30 11:35:25;;;;;;;1.70;1.60;;;;;;;29.55;31.26;96284.50;5094434;28;20056;-63
2023/06/30 11:37:53;;;;;;;1.85;1.60;;;;;;;29.52;34.33;96284.84;5094543;28;20044;-63
2023/06/30 11:40:22;;;;;;;3.20;1.70;;;;;;;29.43;33.59;96286.78;5094217;28;20044;-64